Terminal Aerodrome Forecast
Issued by NWS Wakefield, VA

Home | Current Version | Previous Version | Text Only | Print | Product List | Glossary On
Versions: 1 2 3 4 5 6 7 8 9 10 11 12 13 14 15 16 17 18 19 20
000
FTUS41 KAKQ 011100
TAFSBY
TAF
KSBY 011133Z 0112/0212 22004KT P6SM VCSH BKN090
      TEMPO 0112/0114 3SM SHRA OVC030
     FM011700 25010KT P6SM SCT040 BKN120
     FM012200 20005KT P6SM SCT120=

USA.gov is the U.S. government's official web portal to all federal, state and local government web resources and services.